createdAt,value
2018-09-19T00:03:43.662Z,5.23
2018-09-19T00:08:47.206Z,5.00
2018-09-19T00:13:50.795Z,5.47
2018-09-19T00:18:54.901Z,5.03
2018-09-19T00:23:58.648Z,5.17
2018-09-19T00:29:02.344Z,4.67
2018-09-19T00:34:06.002Z,5.87
2018-09-19T00:39:10.341Z,5.30
2018-09-19T00:44:15.165Z,5.47
2018-09-19T00:49:19.415Z,4.47
2018-09-19T00:54:22.934Z,6.40
2018-09-19T00:59:26.590Z,6.30
2018-09-19T01:04:30.513Z,6.13
2018-09-19T01:09:34.531Z,5.57
2018-09-19T01:14:38.124Z,5.10
2018-09-19T01:19:41.717Z,5.70
2018-09-19T01:24:45.315Z,5.90
2018-09-19T01:29:49.065Z,5.57
2018-09-19T01:34:52.860Z,5.33
2018-09-19T01:39:56.422Z,5.73
2018-09-19T01:44:59.985Z,5.83
2018-09-19T01:50:03.678Z,5.17
2018-09-19T01:55:07.227Z,7.57
2018-09-19T02:00:11.547Z,5.37
2018-09-19T02:05:15.247Z,5.83
2018-09-19T02:10:18.790Z,5.20
2018-09-19T02:15:22.287Z,5.50
2018-09-19T02:20:25.825Z,6.10
2018-09-19T02:25:29.471Z,5.80
2018-09-19T02:30:33.289Z,4.90
2018-09-19T02:35:36.807Z,4.60
2018-09-19T02:40:40.830Z,5.20
2018-09-19T02:45:44.393Z,5.37
2018-09-19T02:50:47.920Z,5.43
2018-09-19T02:55:51.651Z,5.00
2018-09-19T03:00:55.161Z,4.90
2018-09-19T03:05:58.899Z,5.40
2018-09-19T03:11:07.172Z,5.10
2018-09-19T03:16:10.728Z,5.13
2018-09-19T03:21:14.297Z,4.53
2018-09-19T03:26:17.829Z,4.73
2018-09-19T03:31:21.430Z,4.37
2018-09-19T03:36:24.963Z,5.00
2018-09-19T03:41:28.527Z,5.13
2018-09-19T03:46:32.130Z,5.73
2018-09-19T03:51:35.717Z,4.87
2018-09-19T03:56:39.260Z,6.03
2018-09-19T04:01:42.965Z,5.00
2018-09-19T04:06:46.611Z,4.30
2018-09-19T04:11:50.170Z,4.87
2018-09-19T04:16:53.943Z,5.00
2018-09-19T04:21:57.619Z,4.50
2018-09-19T04:27:01.154Z,4.97
2018-09-19T04:32:04.723Z,6.13
2018-09-19T04:37:08.309Z,5.43
2018-09-19T04:42:11.927Z,5.10
2018-09-19T04:47:16.371Z,5.10
2018-09-19T04:52:19.895Z,5.13
2018-09-19T04:57:23.425Z,4.73
2018-09-19T05:02:26.983Z,5.05
2018-09-19T05:07:30.692Z,5.43
2018-09-19T05:12:34.292Z,4.57
2018-09-19T05:17:37.899Z,6.37
2018-09-19T05:22:41.549Z,7.13
2018-09-19T05:27:45.114Z,6.73
2018-09-19T05:32:48.745Z,7.53
2018-09-19T05:37:52.379Z,7.63
2018-09-19T05:42:55.997Z,8.50
2018-09-19T05:47:59.683Z,7.60
2018-09-19T05:53:04.823Z,7.53
2018-09-19T05:58:08.426Z,8.93
2018-09-19T06:03:12.068Z,8.00
2018-09-19T06:08:15.645Z,10.23
2018-09-19T06:13:19.283Z,8.87
2018-09-19T06:18:23.041Z,9.33
2018-09-19T06:23:26.909Z,10.57
2018-09-19T06:28:37.128Z,10.70
2018-09-19T06:33:40.756Z,10.60
2018-09-19T06:38:44.296Z,11.03
2018-09-19T06:43:48.075Z,11.00
2018-09-19T06:48:51.749Z,13.20
2018-09-19T06:53:55.409Z,11.10
2018-09-19T06:58:58.958Z,11.80
2018-09-19T07:04:02.623Z,11.17
2018-09-19T07:09:07.668Z,10.50
2018-09-19T07:14:11.438Z,10.40
2018-09-19T07:19:15.074Z,9.40
2018-09-19T07:24:18.759Z,10.50
2018-09-19T07:29:22.323Z,9.07
2018-09-19T07:34:25.939Z,8.40
2018-09-19T07:39:29.533Z,8.73
2018-09-19T07:44:33.178Z,7.67
2018-09-19T07:49:36.769Z,6.43
2018-09-19T07:54:40.337Z,6.67
2018-09-19T07:59:43.819Z,7.13
2018-09-19T08:04:47.360Z,4.53
2018-09-19T08:09:50.933Z,4.73
2018-09-19T08:14:54.482Z,5.30
2018-09-19T08:19:58.057Z,5.07
2018-09-19T08:25:01.683Z,5.23
2018-09-19T08:30:08.523Z,4.47
2018-09-19T08:35:12.188Z,3.87
2018-09-19T08:40:15.688Z,3.67
2018-09-19T08:45:19.301Z,3.47
2018-09-19T08:50:22.861Z,3.40
2018-09-19T08:55:27.032Z,2.83
2018-09-19T09:00:30.601Z,3.47
2018-09-19T09:05:34.459Z,4.40
2018-09-19T09:10:38.044Z,4.00
2018-09-19T09:15:41.589Z,5.37
2018-09-19T09:20:45.226Z,4.80
2018-09-19T09:25:48.724Z,4.90
2018-09-19T09:30:59.489Z,5.43
2018-09-19T09:36:03.083Z,5.33
2018-09-19T09:41:07.105Z,5.50
2018-09-19T09:46:10.867Z,4.67
2018-09-19T09:51:14.512Z,5.00
2018-09-19T09:56:18.126Z,5.57
2018-09-19T10:01:22.505Z,4.77
2018-09-19T10:06:26.175Z,3.73
2018-09-19T10:11:29.662Z,4.63
2018-09-19T10:16:33.171Z,3.90
2018-09-19T10:21:36.726Z,4.93
2018-09-19T10:26:40.198Z,3.90
2018-09-19T10:31:43.697Z,4.10
2018-09-19T10:36:47.390Z,4.10
2018-09-19T10:41:51.390Z,3.50
2018-09-19T10:46:55.050Z,3.93
2018-09-19T10:51:58.729Z,3.47
2018-09-19T10:57:02.479Z,3.70
2018-09-19T11:02:06.111Z,3.53
2018-09-19T11:07:17.394Z,3.10
2018-09-19T11:12:20.975Z,3.47
2018-09-19T11:17:24.820Z,4.97
2018-09-19T11:22:28.411Z,4.23
2018-09-19T11:27:32.072Z,3.67
2018-09-19T11:32:35.617Z,3.73
2018-09-19T11:37:39.195Z,3.53
2018-09-19T11:42:42.755Z,3.57
2018-09-19T11:47:46.332Z,4.40
2018-09-19T11:52:50.037Z,3.37
2018-09-19T11:57:53.617Z,3.57
2018-09-19T12:02:57.191Z,4.83
2018-09-19T12:08:00.719Z,3.90
2018-09-19T12:13:04.586Z,4.10
2018-09-19T12:18:08.083Z,3.93
2018-09-19T12:23:11.680Z,3.20
2018-09-19T12:28:15.235Z,3.20
2018-09-19T12:33:18.757Z,4.20
2018-09-19T12:38:22.594Z,3.93
2018-09-19T12:43:26.173Z,3.80
2018-09-19T12:48:29.733Z,3.50
2018-09-19T12:53:33.229Z,4.83
2018-09-19T12:58:37.175Z,4.53
2018-09-19T13:03:40.875Z,4.80
2018-09-19T13:08:44.651Z,4.07
2018-09-19T13:13:48.280Z,4.07
2018-09-19T13:18:51.946Z,3.93
2018-09-19T13:23:55.638Z,3.57
2018-09-19T13:28:59.457Z,4.13
2018-09-19T13:34:03.096Z,3.90
2018-09-19T13:39:09.603Z,4.40
2018-09-19T13:44:20.646Z,3.83
2018-09-19T13:49:27.894Z,5.17
2018-09-19T13:54:31.450Z,4.57
2018-09-19T13:59:35.063Z,3.60
2018-09-19T14:04:38.677Z,3.60
2018-09-19T14:09:42.355Z,4.13
2018-09-19T14:14:48.741Z,3.47
2018-09-19T14:19:52.585Z,4.10
2018-09-19T14:24:56.691Z,3.80
2018-09-19T14:30:00.281Z,3.60
2018-09-19T14:35:03.829Z,3.57
2018-09-19T14:40:07.518Z,3.67
2018-09-19T14:45:11.039Z,3.67
2018-09-19T14:50:14.636Z,3.90
2018-09-19T14:55:18.163Z,3.40
2018-09-19T15:00:28.764Z,3.53
2018-09-19T15:05:32.398Z,2.63
2018-09-19T15:10:36.009Z,3.83
2018-09-19T15:15:39.720Z,3.90
2018-09-19T15:20:43.271Z,4.40
2018-09-19T15:25:47.019Z,3.63
2018-09-19T15:30:50.934Z,2.73
2018-09-19T15:35:54.580Z,4.33
2018-09-19T15:40:58.333Z,3.63
2018-09-19T15:46:01.951Z,4.37
2018-09-19T15:51:05.695Z,4.50
2018-09-19T15:56:09.572Z,3.57
2018-09-19T16:01:13.174Z,3.87
2018-09-19T16:06:16.811Z,3.93
2018-09-19T16:11:20.420Z,3.57
2018-09-19T16:16:23.957Z,3.23
2018-09-19T16:21:27.475Z,4.80
2018-09-19T16:26:31.109Z,3.60
2018-09-19T16:31:34.637Z,3.20
2018-09-19T16:36:38.443Z,4.80
2018-09-19T16:41:42.109Z,4.37
2018-09-19T16:46:45.777Z,4.17
2018-09-19T16:51:55.534Z,4.27
2018-09-19T16:56:59.086Z,3.77
2018-09-19T17:02:02.649Z,4.33
2018-09-19T17:07:06.251Z,4.23
2018-09-19T17:12:09.761Z,3.83
2018-09-19T17:17:13.336Z,4.33
2018-09-19T17:22:16.926Z,3.90
2018-09-19T17:27:21.667Z,4.07
2018-09-19T17:32:25.293Z,4.10
2018-09-19T17:37:28.887Z,4.20
2018-09-19T17:42:32.507Z,3.90
2018-09-19T17:47:36.535Z,3.90
2018-09-19T17:52:40.178Z,3.53
2018-09-19T17:57:43.802Z,4.77
2018-09-19T18:02:47.583Z,3.93
2018-09-19T18:07:51.217Z,4.03
2018-09-19T18:12:54.805Z,3.37
2018-09-19T18:17:58.395Z,4.20
2018-09-19T18:23:02.096Z,4.20
2018-09-19T18:28:05.861Z,4.47
2018-09-19T18:33:09.508Z,4.10
2018-09-19T18:38:13.147Z,4.57
2018-09-19T18:43:16.699Z,4.03
2018-09-19T18:48:20.427Z,3.40
2018-09-19T18:53:24.108Z,3.47
2018-09-19T18:58:27.913Z,3.10
2018-09-19T19:03:32.486Z,3.80
2018-09-19T19:08:36.134Z,3.63
2018-09-19T19:13:39.768Z,3.97
2018-09-19T19:18:43.917Z,4.00
2018-09-19T19:23:47.479Z,3.57
2018-09-19T19:28:55.204Z,3.50
2018-09-19T19:33:58.762Z,4.17
2018-09-19T19:39:02.551Z,4.00
2018-09-19T19:44:06.279Z,3.73
2018-09-19T19:49:09.895Z,4.50
2018-09-19T19:54:13.437Z,4.93
2018-09-19T19:59:17.046Z,4.37
2018-09-19T20:04:20.598Z,4.13
2018-09-19T20:09:24.312Z,4.23
2018-09-19T20:14:27.949Z,4.67
2018-09-19T20:19:31.566Z,3.97
2018-09-19T20:24:35.177Z,4.73
2018-09-19T20:29:38.734Z,3.57
2018-09-19T20:34:42.324Z,3.50
2018-09-19T20:39:45.853Z,3.40
2018-09-19T20:44:49.394Z,3.50
2018-09-19T20:49:52.940Z,4.10
2018-09-19T20:54:57.515Z,3.37
2018-09-19T21:00:01.802Z,4.70
2018-09-19T21:05:05.471Z,3.93
2018-09-19T21:10:09.041Z,4.73
2018-09-19T21:15:12.664Z,4.93
2018-09-19T21:20:16.237Z,4.27
2018-09-19T21:25:20.080Z,5.30
2018-09-19T21:30:32.084Z,4.23
2018-09-19T21:35:35.634Z,5.40
2018-09-19T21:40:39.289Z,5.37
2018-09-19T21:45:42.958Z,4.83
2018-09-19T21:50:47.216Z,4.73
2018-09-19T21:55:50.839Z,4.77
2018-09-19T22:00:59.706Z,5.07
2018-09-19T22:06:03.725Z,5.73
2018-09-19T22:11:07.327Z,3.97
2018-09-19T22:16:10.946Z,3.93
2018-09-19T22:21:14.609Z,4.90
2018-09-19T22:26:18.118Z,4.73
2018-09-19T22:31:21.849Z,4.43
2018-09-19T22:36:25.413Z,6.27
2018-09-19T22:41:29.038Z,4.27
2018-09-19T22:46:32.596Z,4.13
2018-09-19T22:51:36.230Z,5.17
2018-09-19T22:56:39.784Z,5.23
2018-09-19T23:01:43.349Z,4.63
2018-09-19T23:06:48.620Z,5.03
2018-09-19T23:11:52.197Z,4.83
2018-09-19T23:16:55.962Z,4.07
2018-09-19T23:21:59.574Z,4.87
2018-09-19T23:27:03.144Z,5.80
2018-09-19T23:32:06.802Z,4.30
2018-09-19T23:37:10.426Z,4.40
2018-09-19T23:42:14.126Z,4.20
2018-09-19T23:47:17.741Z,4.33
2018-09-19T23:52:21.273Z,4.60
2018-09-19T23:57:24.898Z,4.73
